Time;durP1;ratioP1;P1;durP2;ratioP2;P2;SDS_P1;SDS_P2;PMS_P1;PMS_P2;Temp;Humidity;BMP_temperature;BMP_pressure;BME280_temperature;BME280_humidity;BME280_pressure;Samples;Min_cycle;Max_cycle;Signal;HPM_P1;HPM_P2
2023/10/06 00:00:26;;;;;;;0.10;0.10;;;;;;;16.20;69.53;102510.69;5030267;28;20091;-81
2023/10/06 00:02:53;;;;;;;0.65;0.40;;;;;;;16.25;69.08;102506.16;5030057;28;20048;-81
2023/10/06 00:05:20;;;;;;;0.05;0.05;;;;;;;16.13;69.42;102497.44;5032271;28;20029;-81
2023/10/06 00:07:47;;;;;;;0.03;0.03;;;;;;;16.12;69.77;102505.47;5034929;28;20040;-81
2023/10/06 00:10:21;;;;;;;0.10;0.10;;;;;;;16.16;69.50;102497.41;5034371;28;20116;-81
2023/10/06 00:12:53;;;;;;;0.20;0.20;;;;;;;16.15;69.49;102490.28;5033597;28;20029;-81
2023/10/06 00:15:26;;;;;;;0.10;0.10;;;;;;;16.08;69.69;102493.09;5033465;28;20025;-81
2023/10/06 00:17:55;;;;;;;2.45;0.70;;;;;;;16.11;69.03;102498.38;5031372;28;20447;-79
2023/10/06 00:20:31;;;;;;;0.60;0.60;;;;;;;16.05;69.60;102502.03;5027906;28;20107;-80
2023/10/06 00:23:02;;;;;;;0.28;0.28;;;;;;;16.01;69.54;102497.63;5033815;28;20123;-81
2023/10/06 00:25:29;;;;;;;0.10;0.10;;;;;;;16.05;69.68;102494.03;5034799;28;20037;-79
2023/10/06 00:27:55;;;;;;;1.20;0.50;;;;;;;15.94;69.84;102504.00;5034872;28;20083;-80
2023/10/06 00:30:22;;;;;;;0.30;0.30;;;;;;;15.94;70.45;102496.00;5039935;28;20025;-81
2023/10/06 00:32:49;;;;;;;0.10;0.10;;;;;;;15.94;70.27;102498.66;5026460;28;20032;-79
2023/10/06 00:35:22;;;;;;;0.35;0.35;;;;;;;15.94;70.40;102488.84;5026982;28;20087;-80
2023/10/06 00:37:50;;;;;;;0.10;0.10;;;;;;;15.85;71.08;102487.19;5032012;28;20052;-80
2023/10/06 00:40:20;;;;;;;0.10;0.10;;;;;;;15.92;70.82;102487.97;5032983;28;20021;-79
2023/10/06 00:42:56;;;;;;;1.98;0.60;;;;;;;15.94;70.57;102493.31;5030236;28;20266;-81
2023/10/06 00:45:25;;;;;;;0.20;0.20;;;;;;;15.84;70.93;102489.91;5033543;28;20172;-78
2023/10/06 00:47:53;;;;;;;0.10;0.10;;;;;;;15.89;70.87;102492.47;5038155;28;20029;-80
2023/10/06 00:50:24;;;;;;;0.03;0.03;;;;;;;15.89;70.66;102484.47;5040746;28;20044;-81
2023/10/06 00:52:52;;;;;;;0.10;0.10;;;;;;;15.88;70.99;102488.94;5025047;28;20056;-81
2023/10/06 00:55:19;;;;;;;0.08;0.08;;;;;;;15.83;70.87;102483.66;5027583;28;20041;-81
2023/10/06 00:57:52;;;;;;;0.20;0.20;;;;;;;15.81;70.96;102489.91;5024928;28;20272;-80
2023/10/06 01:00:20;;;;;;;0.10;0.10;;;;;;;15.84;70.86;102480.09;5021987;28;20443;-79
2023/10/06 01:02:48;;;;;;;0.10;0.10;;;;;;;15.85;70.76;102483.66;5024723;28;20038;-81
2023/10/06 01:05:15;;;;;;;0.08;0.08;;;;;;;15.81;70.96;102480.13;5026017;28;20064;-80
2023/10/06 01:07:45;;;;;;;0.10;0.10;;;;;;;15.80;70.60;102477.44;5024266;28;20053;-81
2023/10/06 01:10:17;;;;;;;1.23;1.20;;;;;;;15.80;70.59;102482.78;5028731;28;20068;-81
2023/10/06 01:12:50;;;;;;;0.65;0.65;;;;;;;15.80;70.32;102475.66;5022012;28;20036;-79
2023/10/06 01:15:19;;;;;;;0.10;0.10;;;;;;;15.74;70.66;102467.75;5029847;28;20036;-81
2023/10/06 01:17:47;;;;;;;0.20;0.20;;;;;;;15.71;70.66;102466.91;5029919;28;20029;-79
2023/10/06 01:20:32;;;;;;;0.30;0.30;;;;;;;15.72;70.58;102466.88;5031916;28;20033;-81
2023/10/06 01:22:58;;;;;;;0.10;0.10;;;;;;;15.70;70.74;102466.00;5026158;28;20504;-80
2023/10/06 01:25:25;;;;;;;0.00;0.00;;;;;;;15.69;70.86;102453.59;5028265;28;20120;-80
2023/10/06 01:27:51;;;;;;;0.10;0.10;;;;;;;15.65;70.81;102457.19;5023244;28;20030;-79
2023/10/06 01:30:19;;;;;;;0.20;0.20;;;;;;;15.66;70.94;102454.50;5032602;28;20033;-78
2023/10/06 01:32:50;;;;;;;0.03;0.03;;;;;;;15.66;71.20;102445.59;5029819;28;20041;-80
2023/10/06 01:35:18;;;;;;;0.15;0.15;;;;;;;15.66;71.04;102442.91;5027652;28;20033;-80
2023/10/06 01:37:45;;;;;;;2.03;1.65;;;;;;;15.69;70.74;102449.09;5027459;28;20049;-80
2023/10/06 01:40:27;;;;;;;0.40;0.40;;;;;;;15.67;70.87;102452.72;5027280;28;20161;-80
2023/10/06 01:42:53;;;;;;;0.10;0.10;;;;;;;15.73;70.84;102457.09;5030879;28;20048;-81
2023/10/06 01:45:21;;;;;;;0.10;0.10;;;;;;;15.72;71.10;102463.34;5028305;28;20029;-80
2023/10/06 01:47:55;;;;;;;0.10;0.10;;;;;;;15.69;70.70;102458.94;5027855;28;20061;-80
2023/10/06 01:50:26;;;;;;;0.10;0.10;;;;;;;15.68;70.72;102463.38;5027137;28;20033;-80
2023/10/06 01:52:56;;;;;;;0.10;0.10;;;;;;;15.72;70.73;102468.69;5029194;28;20068;-80
2023/10/06 01:55:24;;;;;;;0.10;0.10;;;;;;;15.72;70.69;102463.34;5030035;28;20029;-80
2023/10/06 01:57:51;;;;;;;0.10;0.10;;;;;;;15.63;71.14;102467.03;5031843;28;20033;-80
2023/10/06 02:00:31;;;;;;;0.10;0.10;;;;;;;15.56;71.51;102465.34;5030832;28;20464;-80
2023/10/06 02:02:57;;;;;;;0.10;0.10;;;;;;;15.62;71.08;102462.59;5031366;28;20068;-78
2023/10/06 02:05:23;;;;;;;0.10;0.10;;;;;;;15.62;71.31;102457.25;5037973;28;20029;-80
2023/10/06 02:07:51;;;;;;;0.10;0.10;;;;;;;15.62;70.90;102455.44;5035881;28;20033;-80
2023/10/06 02:10:18;;;;;;;0.00;0.00;;;;;;;15.53;71.38;102448.44;5032126;28;20032;-80
2023/10/06 02:12:45;;;;;;;1.55;0.43;;;;;;;15.51;71.30;102444.03;5028766;28;20053;-79
2023/10/06 02:15:11;;;;;;;0.10;0.10;;;;;;;15.49;71.51;102444.06;5035064;28;20489;-80
2023/10/06 02:17:40;;;;;;;0.63;0.63;;;;;;;15.50;71.64;102450.28;5033963;28;20247;-80
2023/10/06 02:23:00;;;;;;;0.10;0.10;;;;;;;15.42;72.24;102439.72;5088113;27;20394;-80
2023/10/06 02:25:29;;;;;;;0.20;0.20;;;;;;;15.47;71.71;102440.53;5086644;28;20028;-80
2023/10/06 02:27:56;;;;;;;0.45;0.35;;;;;;;15.32;72.60;102446.13;5087185;28;20031;-80
2023/10/06 02:30:39;;;;;;;6.50;2.58;;;;;;;15.39;71.95;102437.13;5089929;28;20066;-80
2023/10/06 02:33:06;;;;;;;0.20;0.20;;;;;;;15.36;72.18;102439.81;5089451;28;20070;-80
2023/10/06 02:35:34;;;;;;;2.05;1.85;;;;;;;15.28;72.49;102441.72;5089123;28;20020;-80
2023/10/06 02:38:05;;;;;;;0.50;0.50;;;;;;;15.39;72.05;102445.13;5089082;28;20036;-79
2023/10/06 02:40:43;;;;;;;0.80;0.80;;;;;;;15.33;72.38;102461.22;5087139;28;20606;-80
2023/10/06 02:43:11;;;;;;;0.00;0.00;;;;;;;15.30;72.66;102459.50;5087585;28;20040;-80
2023/10/06 02:45:40;;;;;;;0.10;0.10;;;;;;;15.35;72.63;102459.41;5079111;28;20055;-80
2023/10/06 02:48:14;;;;;;;0.10;0.10;;;;;;;15.38;72.14;102456.72;5083789;28;20028;-80
2023/10/06 02:50:44;;;;;;;0.10;0.10;;;;;;;15.35;72.36;102451.41;5085342;28;20029;-80
2023/10/06 02:53:13;;;;;;;0.10;0.10;;;;;;;15.37;72.28;102455.81;5084672;28;20558;-80
2023/10/06 02:55:43;;;;;;;0.10;0.10;;;;;;;15.36;72.08;102450.50;5085084;28;20024;-80
2023/10/06 02:58:16;;;;;;;0.30;0.30;;;;;;;15.34;71.92;102430.97;5084575;28;20142;-80
2023/10/06 03:00:50;;;;;;;;;;;;;;;15.44;71.72;102435.25;5081346;28;20028;-80
2023/10/06 03:03:18;;;;;;;0.10;0.10;;;;;;;15.33;71.79;102423.84;5086058;28;19963;-80
2023/10/06 03:05:49;;;;;;;11.10;1.30;;;;;;;15.28;72.21;102420.38;5080264;28;20054;-80
2023/10/06 03:08:20;;;;;;;0.47;0.47;;;;;;;15.27;71.83;102415.94;5090297;28;20021;-80
2023/10/06 03:10:48;;;;;;;0.15;0.15;;;;;;;15.22;72.73;102409.78;5088932;28;20047;-80
2023/10/06 03:13:42;;;;;;;0.35;0.35;;;;;;;15.20;72.46;102396.41;5087679;28;20031;-80
2023/10/06 03:16:11;;;;;;;0.63;0.63;;;;;;;15.17;72.33;102394.69;5083357;28;20044;-81
2023/10/06 03:18:39;;;;;;;0.03;0.03;;;;;;;15.25;72.33;102394.56;5084148;28;20033;-77
2023/10/06 03:23:58;;;;;;;0.10;0.10;;;;;;;15.24;72.29;102403.50;5118424;27;20719;-80
2023/10/06 03:26:29;;;;;;;0.10;0.10;;;;;;;15.18;72.48;102398.25;5092692;28;20024;-80
2023/10/06 03:29:02;;;;;;;0.10;0.10;;;;;;;15.23;72.52;102398.16;5091284;28;20029;-80
2023/10/06 03:31:44;;;;;;;;;;;;;;;15.31;72.39;102388.25;5079045;28;20435;-78
2023/10/06 03:34:19;;;;;;;0.10;0.10;;;;;;;15.18;72.54;102395.59;5084494;28;19912;-80
2023/10/06 03:36:46;;;;;;;0.03;0.03;;;;;;;15.16;72.76;102384.91;5082689;28;20417;-78
2023/10/06 03:39:20;;;;;;;0.10;0.10;;;;;;;15.19;72.35;102395.56;5087526;28;20478;-80
2023/10/06 03:41:46;;;;;;;0.10;0.10;;;;;;;15.16;72.41;102384.91;5085645;28;20068;-78
2023/10/06 03:44:17;;;;;;;0.10;0.10;;;;;;;15.10;72.98;102401.00;5100797;28;20081;-78
2023/10/06 03:46:44;;;;;;;0.20;0.20;;;;;;;15.15;72.47;102396.50;5088914;28;20521;-79
2023/10/06 03:49:13;;;;;;;0.10;0.10;;;;;;;15.20;72.19;102418.69;5084484;28;20503;-80
2023/10/06 03:51:40;;;;;;;0.10;0.10;;;;;;;15.18;72.36;102414.28;5082248;28;20025;-80
2023/10/06 03:54:08;;;;;;;0.10;0.10;;;;;;;15.20;72.52;102405.34;5082672;28;20024;-80
2023/10/06 03:56:34;;;;;;;0.40;0.40;;;;;;;15.12;72.76;102409.88;5088400;28;20087;-80
2023/10/06 03:59:00;;;;;;;0.30;0.30;;;;;;;15.16;72.72;102400.91;5084615;28;20135;-80
2023/10/06 04:01:26;;;;;;;0.50;0.30;;;;;;;15.22;72.82;102393.75;5081867;28;20032;-80
2023/10/06 04:03:54;;;;;;;0.10;0.10;;;;;;;15.25;72.60;102383.00;5080043;28;20531;-80
2023/10/06 04:06:23;;;;;;;1.20;0.70;;;;;;;15.23;72.67;102377.69;5082576;28;20056;-80
2023/10/06 04:08:49;;;;;;;2.10;0.57;;;;;;;15.17;72.92;102373.31;5088087;28;20052;-80
2023/10/06 04:11:15;;;;;;;0.10;0.10;;;;;;;15.28;72.41;102377.63;5091133;28;20036;-80
2023/10/06 04:13:42;;;;;;;0.28;0.28;;;;;;;15.29;72.19;102382.06;5080048;28;20033;-78
2023/10/06 04:16:08;;;;;;;0.35;0.35;;;;;;;15.31;72.25;102377.59;5088032;28;20495;-79
2023/10/06 04:18:34;;;;;;;0.68;0.68;;;;;;;15.33;72.36;102375.78;5082532;28;20032;-80
2023/10/06 04:21:03;;;;;;;0.10;0.10;;;;;;;15.32;72.43;102374.00;5088022;28;20086;-80
2023/10/06 04:23:29;;;;;;;22.23;1.33;;;;;;;15.33;72.72;102375.78;5083170;28;20078;-81
2023/10/06 04:25:55;;;;;;;0.30;0.30;;;;;;;15.36;72.55;102375.72;5079025;28;20040;-81
2023/10/06 04:28:23;;;;;;;0.00;0.00;;;;;;;15.37;72.38;102372.16;5078425;28;20052;-80
2023/10/06 04:30:49;;;;;;;0.40;0.40;;;;;;;15.39;72.17;102374.78;5089770;28;20025;-81
2023/10/06 04:33:18;;;;;;;0.10;0.10;;;;;;;15.40;72.01;102373.88;5081588;28;20033;-80
2023/10/06 04:35:55;;;;;;;0.10;0.10;;;;;;;15.47;72.04;102372.88;5074869;28;20032;-80
2023/10/06 04:38:23;;;;;;;0.30;0.30;;;;;;;15.46;72.27;102371.97;5075489;28;20037;-81
2023/10/06 04:40:49;;;;;;;0.40;0.40;;;;;;;15.47;72.11;102371.09;5078015;28;20039;-79
2023/10/06 04:43:17;;;;;;;0.10;0.10;;;;;;;15.48;72.15;102367.50;5074746;28;20021;-80
2023/10/06 04:45:44;;;;;;;0.10;0.10;;;;;;;15.52;71.86;102363.88;5071067;28;20032;-81
2023/10/06 04:48:12;;;;;;;0.10;0.10;;;;;;;15.58;71.49;102367.38;5066882;28;20081;-80
2023/10/06 04:50:38;;;;;;;0.10;0.10;;;;;;;15.51;71.91;102363.91;5075423;28;20031;-78
2023/10/06 04:53:06;;;;;;;0.43;0.43;;;;;;;15.56;71.52;102369.19;5071409;28;20032;-81
2023/10/06 04:55:37;;;;;;;0.08;0.08;;;;;;;15.54;71.45;102369.22;5073802;28;20025;-81
2023/10/06 04:58:05;;;;;;;0.10;0.10;;;;;;;15.56;71.44;102362.03;5073478;28;20024;-80
2023/10/06 05:00:33;;;;;;;0.10;0.10;;;;;;;15.50;71.08;102365.72;5061032;28;20024;-81
2023/10/06 05:02:59;;;;;;;0.10;0.10;;;;;;;15.50;71.12;102360.38;5071284;28;20186;-80
2023/10/06 05:05:26;;;;;;;0.73;0.73;;;;;;;15.48;71.44;102359.50;5073792;28;20036;-79
2023/10/06 05:07:53;;;;;;;0.20;0.20;;;;;;;15.45;71.31;102364.00;5075417;28;20033;-77
2023/10/06 05:10:25;;;;;;;0.40;0.40;;;;;;;15.46;71.23;102355.97;5075044;28;20028;-80
2023/10/06 05:12:52;;;;;;;0.47;0.47;;;;;;;15.44;71.16;102355.13;5073820;28;20403;-80
2023/10/06 05:15:23;;;;;;;0.10;0.10;;;;;;;15.47;71.26;102362.19;5068494;28;20063;-80
2023/10/06 05:17:55;;;;;;;0.20;0.20;;;;;;;15.43;71.09;102361.38;5066343;28;20024;-78
2023/10/06 05:20:22;;;;;;;35.03;1.58;;;;;;;15.49;71.03;102363.94;5072729;28;20157;-77
2023/10/06 05:22:48;;;;;;;0.20;0.20;;;;;;;15.42;71.14;102370.28;5073910;28;20029;-81
2023/10/06 05:25:15;;;;;;;0.08;0.08;;;;;;;15.42;71.17;102362.25;5066213;28;20056;-78
2023/10/06 05:27:43;;;;;;;0.40;0.40;;;;;;;15.40;71.41;102355.19;5073974;28;20036;-80
2023/10/06 05:30:13;;;;;;;0.17;0.17;;;;;;;15.43;71.45;102364.03;5069296;28;20048;-79
2023/10/06 05:32:42;;;;;;;0.10;0.10;;;;;;;15.45;71.27;102356.88;5066497;28;20032;-80
2023/10/06 05:35:10;;;;;;;0.10;0.10;;;;;;;15.47;71.16;102355.06;5070748;28;20441;-80
2023/10/06 05:37:36;;;;;;;0.10;0.10;;;;;;;15.50;71.08;102360.38;5071734;28;20027;-81
2023/10/06 05:40:03;;;;;;;0.15;0.15;;;;;;;15.50;70.99;102363.03;5071202;28;20025;-80
2023/10/06 05:42:29;;;;;;;0.50;0.50;;;;;;;15.49;71.09;102357.72;5065019;28;20348;-81
2023/10/06 05:44:56;;;;;;;8.30;3.95;;;;;;;15.45;71.38;102361.34;5067939;28;20033;-80
2023/10/06 05:47:23;;;;;;;0.10;0.10;;;;;;;15.52;71.03;102369.22;5066959;28;20032;-80
2023/10/06 05:49:49;;;;;;;0.10;0.10;;;;;;;15.48;71.45;102370.19;5072742;28;20032;-81
2023/10/06 05:52:16;;;;;;;0.47;0.47;;;;;;;15.52;70.82;102371.88;5069851;28;20489;-80
2023/10/06 05:54:42;;;;;;;6.60;2.40;;;;;;;15.51;71.19;102380.84;5074132;28;20511;-80
2023/10/06 05:57:09;;;;;;;0.17;0.17;;;;;;;15.46;71.19;102382.66;5075483;28;20491;-80
2023/10/06 05:59:36;;;;;;;0.45;0.45;;;;;;;15.44;71.59;102379.16;5068557;28;20032;-79
2023/10/06 06:02:04;;;;;;;0.20;0.20;;;;;;;15.48;71.15;102370.19;5072765;28;20088;-80
2023/10/06 06:04:31;;;;;;;0.30;0.30;;;;;;;15.60;71.20;102362.88;5060268;28;20058;-81
2023/10/06 06:06:57;;;;;;;0.17;0.17;;;;;;;15.60;71.44;102370.88;5066769;28;20028;-81
2023/10/06 06:09:24;;;;;;;0.10;0.10;;;;;;;15.57;71.21;102366.47;5069598;28;20113;-80
2023/10/06 06:11:51;;;;;;;0.10;0.10;;;;;;;15.56;71.26;102366.50;5072861;28;20024;-81
2023/10/06 06:14:21;;;;;;;0.85;0.85;;;;;;;15.58;71.31;102362.03;5069569;28;20028;-82
2023/10/06 06:16:47;;;;;;;0.77;0.77;;;;;;;15.58;71.49;102370.91;5065037;28;20040;-83
2023/10/06 06:19:14;;;;;;;0.00;0.00;;;;;;;15.53;71.18;102367.44;5072428;28;20029;-81
2023/10/06 06:21:40;;;;;;;0.10;0.10;;;;;;;15.58;71.48;102370.06;5074130;28;20025;-83
2023/10/06 06:24:07;;;;;;;0.30;0.30;;;;;;;15.55;71.35;102362.06;5071798;28;20051;-81
2023/10/06 06:26:38;;;;;;;0.60;0.60;;;;;;;15.58;71.42;102356.69;5079149;28;20516;-80
2023/10/06 06:29:05;;;;;;;4.93;1.00;;;;;;;15.61;71.21;102359.28;5077516;28;20033;-81
2023/10/06 06:31:33;;;;;;;0.00;0.00;;;;;;;15.52;71.29;102355.84;5080269;28;20115;-79
2023/10/06 06:34:04;;;;;;;0.10;0.10;;;;;;;15.60;71.29;102357.53;5072799;28;20028;-80
2023/10/06 06:36:31;;;;;;;0.23;0.23;;;;;;;15.52;71.49;102361.19;5083253;28;20048;-79
2023/10/06 06:38:58;;;;;;;0.43;0.43;;;;;;;15.53;71.39;102352.28;5092973;28;20024;-80
2023/10/06 06:41:24;;;;;;;0.20;0.20;;;;;;;15.59;71.61;102351.31;5077798;28;20024;-81
2023/10/06 06:43:58;;;;;;;17.35;2.38;;;;;;;15.55;71.34;102349.56;5071613;28;20032;-80
2023/10/06 06:46:26;;;;;;;0.10;0.10;;;;;;;15.60;71.25;102360.19;5072594;28;20086;-81
2023/10/06 06:48:52;;;;;;;2.20;1.05;;;;;;;15.51;71.80;102356.78;5073388;28;20025;-80
2023/10/06 06:51:20;;;;;;;0.88;0.68;;;;;;;15.50;71.50;102355.03;5069574;28;20089;-82
2023/10/06 06:53:47;;;;;;;0.03;0.03;;;;;;;15.60;71.75;102357.53;5073666;28;20096;-81
2023/10/06 06:56:13;;;;;;;0.65;0.65;;;;;;;15.71;71.17;102360.91;5074044;28;20410;-81
2023/10/06 06:58:39;;;;;;;0.13;0.13;;;;;;;15.73;70.80;102364.44;5074522;28;20041;-80
2023/10/06 07:01:14;;;;;;;2.45;1.33;;;;;;;15.77;71.05;102358.13;5072795;28;20032;-81
2023/10/06 07:03:40;;;;;;;1.77;1.48;;;;;;;15.73;70.96;102369.78;5073600;28;20029;-81
2023/10/06 07:06:16;;;;;;;0.32;0.32;;;;;;;15.81;71.18;102367.88;5077211;28;20042;-81
2023/10/06 07:08:43;;;;;;;0.10;0.10;;;;;;;15.83;70.76;102368.72;5071142;28;20029;-81
2023/10/06 07:11:10;;;;;;;0.75;0.75;;;;;;;15.91;71.00;102373.06;5074438;28;20037;-84
2023/10/06 07:13:37;;;;;;;0.28;0.28;;;;;;;15.90;70.75;102371.28;5066275;28;20140;-80
2023/10/06 07:16:05;;;;;;;0.10;0.10;;;;;;;15.91;70.98;102368.59;5066378;28;20404;-80
2023/10/06 07:18:32;;;;;;;0.10;0.10;;;;;;;16.01;70.92;102371.97;5067108;28;20032;-80
2023/10/06 07:20:59;;;;;;;0.00;0.00;;;;;;;16.05;70.68;102371.03;5073672;28;20020;-81
2023/10/06 07:23:25;;;;;;;1.48;0.85;;;;;;;16.15;70.65;102367.28;5071751;28;20025;-80
2023/10/06 07:25:51;;;;;;;0.10;0.10;;;;;;;16.23;70.26;102366.25;5075045;28;20510;-80
2023/10/06 07:28:17;;;;;;;0.30;0.30;;;;;;;16.23;70.65;102369.78;5069252;28;20044;-79
2023/10/06 07:30:44;;;;;;;0.85;0.75;;;;;;;16.41;70.40;102373.00;5074138;28;20047;-81
2023/10/06 07:33:10;;;;;;;0.30;0.30;;;;;;;16.48;70.33;102372.84;5068728;28;20063;-81
2023/10/06 07:35:40;;;;;;;0.20;0.20;;;;;;;16.55;70.46;102380.75;5072945;28;20071;-82
2023/10/06 07:38:06;;;;;;;0.20;0.20;;;;;;;16.62;70.35;102388.66;5071043;28;20021;-82
2023/10/06 07:40:32;;;;;;;0.10;0.10;;;;;;;16.74;70.16;102387.50;5073014;28;20045;-82
2023/10/06 07:42:58;;;;;;;0.10;0.10;;;;;;;16.83;70.12;102381.06;5072369;28;20059;-81
2023/10/06 07:45:30;;;;;;;1.23;1.23;;;;;;;16.93;69.99;102381.78;5073112;28;20491;-82
2023/10/06 07:47:56;;;;;;;0.93;0.93;;;;;;;16.97;69.62;102394.16;5069155;28;20035;-82
2023/10/06 07:50:22;;;;;;;0.10;0.10;;;;;;;17.13;69.73;102387.56;5072732;28;20048;-82
2023/10/06 07:52:48;;;;;;;1.08;0.90;;;;;;;17.21;69.61;102384.72;5071889;28;20033;-82
2023/10/06 07:55:16;;;;;;;0.13;0.13;;;;;;;17.35;69.41;102379.03;5073191;28;20111;-82
2023/10/06 07:57:47;;;;;;;0.20;0.20;;;;;;;17.46;69.24;102393.03;5070696;28;20055;-82
2023/10/06 08:00:18;;;;;;;0.10;0.10;;;;;;;17.44;68.81;102389.50;5072995;28;20492;-81
2023/10/06 08:02:45;;;;;;;0.10;0.10;;;;;;;17.56;68.69;102390.16;5077196;28;20025;-82
2023/10/06 08:05:13;;;;;;;0.10;0.10;;;;;;;17.54;68.43;102390.16;5066423;28;20041;-82
2023/10/06 08:07:44;;;;;;;1.23;1.13;;;;;;;17.69;68.12;102383.53;5073863;28;20033;-82
2023/10/06 08:10:13;;;;;;;0.63;0.63;;;;;;;17.73;67.76;102389.72;5073771;28;20028;-82
2023/10/06 08:12:40;;;;;;;0.10;0.10;;;;;;;17.71;67.62;102397.78;5077840;28;20037;-82
2023/10/06 08:15:09;;;;;;;0.45;0.45;;;;;;;17.86;67.48;102395.66;5077695;28;20055;-82
2023/10/06 08:17:36;;;;;;;0.25;0.25;;;;;;;17.81;66.92;102405.59;5079318;28;20035;-81
2023/10/06 08:20:05;;;;;;;0.30;0.30;;;;;;;17.79;67.28;102401.19;5078131;28;20028;-82
2023/10/06 08:22:33;;;;;;;0.20;0.20;;;;;;;17.96;66.83;102391.84;5079537;28;20123;-82
2023/10/06 08:25:02;;;;;;;0.10;0.10;;;;;;;17.92;66.86;102416.94;5077853;28;20024;-81
2023/10/06 08:27:28;;;;;;;0.10;0.10;;;;;;;17.81;67.10;102409.16;5075052;28;20483;-82
2023/10/06 08:29:54;;;;;;;0.52;0.52;;;;;;;17.87;67.09;102425.09;5076725;28;20496;-82
2023/10/06 08:32:21;;;;;;;0.08;0.08;;;;;;;17.74;67.53;102423.66;5079573;28;20492;-82
2023/10/06 08:34:48;;;;;;;1.67;1.55;;;;;;;17.81;67.27;102402.91;5076397;28;20036;-81
2023/10/06 08:37:15;;;;;;;0.20;0.20;;;;;;;17.90;67.50;102400.00;5077783;28;20331;-81
2023/10/06 08:39:41;;;;;;;0.28;0.28;;;;;;;18.04;67.01;102405.91;5072642;28;20058;-81
2023/10/06 08:42:11;;;;;;;0.70;0.70;;;;;;;18.24;66.92;102408.06;5073879;28;20601;-82
2023/10/06 08:44:39;;;;;;;0.10;0.10;;;;;;;18.25;66.59;102403.59;5074624;28;20028;-81
2023/10/06 08:47:09;;;;;;;1.92;0.43;;;;;;;18.53;66.38;102402.78;5076406;28;20031;-80
2023/10/06 08:49:37;;;;;;;3.80;0.95;;;;;;;18.53;66.04;102397.44;5076293;28;20052;-81
2023/10/06 08:52:04;;;;;;;0.95;0.95;;;;;;;18.81;65.60;102402.00;5072993;28;20025;-81
2023/10/06 08:54:31;;;;;;;0.20;0.20;;;;;;;18.64;65.43;102397.13;5076413;28;20476;-79
2023/10/06 08:56:57;;;;;;;0.45;0.45;;;;;;;18.58;65.46;102395.50;5075911;28;20024;-79
2023/10/06 08:59:23;;;;;;;0.40;0.40;;;;;;;18.65;65.14;102398.88;5076630;28;20029;-80
2023/10/06 09:01:50;;;;;;;0.10;0.10;;;;;;;18.81;64.79;102393.94;5075800;28;20043;-79
2023/10/06 09:04:16;;;;;;;0.47;0.47;;;;;;;18.78;65.19;102394.94;5073432;28;20112;-79
2023/10/06 09:07:12;;;;;;;0.10;0.10;;;;;;;19.00;65.02;102400.53;5064393;28;20502;-79
2023/10/06 09:09:40;;;;;;;0.35;0.35;;;;;;;18.86;65.11;102406.28;5074455;28;20016;-80
2023/10/06 09:12:07;;;;;;;1.45;0.35;;;;;;;19.01;64.91;102393.38;5073474;28;20027;-80
2023/10/06 09:14:35;;;;;;;0.10;0.10;;;;;;;19.13;64.39;102390.31;5069207;28;20550;-80
2023/10/06 09:17:02;;;;;;;0.30;0.30;;;;;;;19.12;64.86;102396.59;5072905;28;20032;-79
2023/10/06 09:19:49;;;;;;;0.10;0.10;;;;;;;19.36;64.13;102394.94;5067163;28;20028;-81
2023/10/06 09:22:16;;;;;;;0.10;0.10;;;;;;;19.36;64.18;102394.94;5066299;28;20491;-80
2023/10/06 09:24:54;;;;;;;1.48;1.38;;;;;;;19.65;63.93;102395.81;5073585;28;20032;-82
2023/10/06 09:27:21;;;;;;;0.10;0.10;;;;;;;19.72;63.48;102389.25;5081135;28;20025;-80
2023/10/06 09:29:47;;;;;;;0.20;0.20;;;;;;;19.83;63.43;102391.63;5091249;28;20042;-78
2023/10/06 09:32:21;;;;;;;0.10;0.10;;;;;;;19.86;62.99;102386.16;5085190;28;20415;-80
2023/10/06 09:34:53;;;;;;;0.20;0.20;;;;;;;19.92;62.67;102379.66;5069499;28;20048;-79
2023/10/06 09:37:20;;;;;;;0.32;0.32;;;;;;;19.81;62.64;102381.81;5082831;28;20044;-78
2023/10/06 09:39:57;;;;;;;0.25;0.25;;;;;;;19.89;62.50;102377.09;5096327;28;20024;-79
2023/10/06 09:42:29;;;;;;;0.10;0.10;;;;;;;19.84;62.41;102374.56;5087887;28;20056;-79
2023/10/06 09:45:07;;;;;;;0.10;0.10;;;;;;;19.88;62.55;102369.97;5075119;28;20188;-79
2023/10/06 09:47:36;;;;;;;0.40;0.40;;;;;;;19.85;62.62;102367.38;5075559;28;20502;-81
2023/10/06 09:50:03;;;;;;;0.20;0.20;;;;;;;19.87;62.69;102381.66;5076333;28;20028;-81
2023/10/06 09:52:33;;;;;;;0.75;0.75;;;;;;;19.85;62.88;102386.19;5070936;28;20077;-80
2023/10/06 09:55:04;;;;;;;0.20;0.20;;;;;;;19.91;62.80;102380.59;5074719;28;20032;-81
2023/10/06 09:57:31;;;;;;;0.10;0.10;;;;;;;20.05;62.48;102380.13;5071921;28;20033;-81
2023/10/06 10:00:00;;;;;;;0.15;0.15;;;;;;;20.16;62.30;102369.88;5074283;28;20111;-80
2023/10/06 10:02:29;;;;;;;0.10;0.10;;;;;;;20.26;61.80;102370.41;5075897;28;20052;-82
2023/10/06 10:04:59;;;;;;;0.22;0.22;;;;;;;20.32;61.60;102375.53;5072505;28;20384;-81
2023/10/06 10:07:28;;;;;;;0.60;0.60;;;;;;;20.46;60.88;102371.47;5064109;28;20032;-81
2023/10/06 10:09:55;;;;;;;0.10;0.10;;;;;;;20.57;61.22;102380.00;5075227;28;20060;-81
2023/10/06 10:15:37;;;;;;;0.30;0.30;;;;;;;20.46;61.15;102377.75;5087180;27;1207323;-80
2023/10/06 10:20:56;;;;;;;18.63;4.13;;;;;;;20.23;61.62;102378.59;5056704;28;20726;-81
2023/10/06 10:23:22;;;;;;;0.30;0.30;;;;;;;20.32;61.14;102372.84;5058467;28;20110;-81
2023/10/06 10:25:48;;;;;;;0.20;0.20;;;;;;;20.26;60.94;102374.91;5057138;28;20041;-82
2023/10/06 10:28:19;;;;;;;0.10;0.10;;;;;;;20.45;61.02;102383.16;5060552;28;20038;-81
2023/10/06 10:33:29;;;;;;;0.20;0.20;;;;;;;20.29;61.34;102374.81;5111489;27;20366;-81
2023/10/06 10:39:17;;;;;;;0.25;0.25;;;;;;;20.36;61.62;102366.44;5103740;27;20352;-82
2023/10/06 10:41:46;;;;;;;0.52;0.20;;;;;;;20.36;61.49;102370.94;5084444;28;20111;-83
2023/10/06 10:44:14;;;;;;;0.08;0.08;;;;;;;20.18;61.73;102372.50;5086905;28;20062;-81
2023/10/06 10:49:22;;;;;;;2.00;1.10;;;;;;;20.30;61.71;102381.91;5104059;27;20370;-81
2023/10/06 10:51:54;;;;;;;0.00;0.00;;;;;;;20.25;61.68;102374.03;5087242;28;20483;-81
2023/10/06 10:54:22;;;;;;;;;;;;;;;20.28;61.49;102378.44;5082443;28;20281;-81
2023/10/06 10:56:51;;;;;;;0.30;0.30;;;;;;;20.20;62.17;102371.50;5095297;28;19963;-80
2023/10/06 10:59:18;;;;;;;0.52;0.52;;;;;;;20.15;62.61;102372.59;5087760;28;20083;-81
2023/10/06 11:01:51;;;;;;;0.32;0.32;;;;;;;20.34;62.15;102381.75;5071927;28;20024;-81
2023/10/06 11:04:36;;;;;;;0.43;0.43;;;;;;;20.37;61.97;102372.69;5070920;28;20032;-81
2023/10/06 11:07:11;;;;;;;0.10;0.10;;;;;;;20.56;61.27;102356.75;5069903;28;20519;-81
2023/10/06 11:09:40;;;;;;;0.28;0.28;;;;;;;20.39;61.46;102364.53;5070365;28;20033;-81
2023/10/06 11:12:28;;;;;;;0.10;0.10;;;;;;;20.61;61.18;102354.75;5071448;28;20044;-80
2023/10/06 11:15:02;;;;;;;0.10;0.10;;;;;;;20.60;61.33;102373.63;5070347;28;20020;-81
2023/10/06 11:17:31;;;;;;;1.30;1.20;;;;;;;20.39;61.09;102369.94;5073794;28;20020;-80
2023/10/06 11:20:13;;;;;;;0.22;0.22;;;;;;;20.47;61.65;102363.34;5093839;28;20024;-81
2023/10/06 11:22:52;;;;;;;0.08;0.08;;;;;;;20.45;61.21;102358.94;5069967;28;20056;-81
2023/10/06 11:25:18;;;;;;;0.30;0.30;;;;;;;20.69;61.26;102359.84;5071883;28;20667;-82
2023/10/06 11:27:55;;;;;;;0.10;0.10;;;;;;;20.61;61.13;102360.13;5071847;28;20025;-81
2023/10/06 11:30:23;;;;;;;0.10;0.10;;;;;;;20.67;60.79;102353.63;5069768;28;20527;-81
2023/10/06 11:32:50;;;;;;;0.20;0.20;;;;;;;21.00;60.18;102351.44;5070471;28;20427;-81
2023/10/06 11:35:17;;;;;;;1.25;1.25;;;;;;;21.12;60.09;102351.88;5072626;28;20319;-80
2023/10/06 11:37:44;;;;;;;0.10;0.10;;;;;;;20.99;60.02;102352.38;5071157;28;20029;-81
2023/10/06 11:40:12;;;;;;;0.20;0.20;;;;;;;21.05;60.14;102361.16;5070423;28;20056;-81
2023/10/06 11:42:44;;;;;;;0.03;0.03;;;;;;;21.16;60.28;102348.16;5081529;28;20115;-81
2023/10/06 11:45:27;;;;;;;0.10;0.10;;;;;;;21.22;59.75;102341.63;5089873;28;20097;-81
2023/10/06 11:47:54;;;;;;;0.10;0.10;;;;;;;21.42;59.52;102356.94;5089282;28;20027;-81
2023/10/06 11:52:59;;;;;;;0.10;0.10;;;;;;;21.49;58.90;102347.66;5107418;27;20388;-82
2023/10/06 11:55:31;;;;;;;0.30;0.30;;;;;;;21.60;58.44;102340.03;5096364;28;20326;-82
2023/10/06 11:58:00;;;;;;;;;;;;;;;21.69;57.91;102349.53;5106588;28;20031;-82